Terminal Aerodrome Forecast
Issued by NWS

Home | Current Version | Previous Version | Graphics & Text | Print | Product List | Glossary On
Versions: 1 2 3 4 5 6 7 8 9 10 11 12 13 14 15
000
FTUS41 KCLE 270500
TAFFDY
TAF
KFDY 270521Z 2706/2806 32007KT P6SM OVC045
     FM271100 33010KT P6SM BKN020
     FM271500 31009KT P6SM BKN035
     FM280000 36009KT P6SM BKN050=

USA.gov is the U.S. government's official web portal to all federal, state and local government web resources and services.